Quick Compass APK

Quick Compass
Quick Compass screenshot 1Quick Compass screenshot 2Quick Compass screenshot 3
Quick Compass 4.8 apk, update on 2020-02-18
This is a very simple compass app with minimal and elegant design

*Features*
- Simple UI and minimal aesthetic (No unnecessary chunks)
- Shows approximate north
- Shows the device heading in degrees
- Shows latitude
- Shows longitude
- Google Maps built in
- Shows the Address of current location
- Both Dark and Light Modes
- Use flashlight as Torch
- And, completely AdFree

List Quick Compass APK files with old version


+ Quick Compass version 4.8 (Updated: 2020-02-18 00:00:00, size: 1,671,749)
+ Quick Compass version 4.7 (Updated: 2019-11-29 19:45:48, size: 1,666,783)
+ Quick Compass version 4.6 (Updated: 2019-11-24 07:22:33, size: 1,666,908)
+ Quick Compass version 4.5 (Updated: 2019-11-12 18:51:12, size: 1,666,879)
+ Quick Compass version 4.4 (Updated: 2019-11-08 18:52:28, size: 1,663,699)
+ Quick Compass version 4.3 (Updated: 2019-11-07 18:49:41, size: 1,664,053)
+ Quick Compass version 4.2 (Updated: 2019-11-06 18:36:56, size: 1,663,915)
+ Quick Compass version 3.8 (Updated: 2019-11-05 06:56:36, size: 1,687,895)
+ Quick Compass version 3.7 (Updated: 2019-11-04 18:31:19, size: 1,695,022)
+ Quick Compass version 3.4_beta (Updated: 2019-11-03 18:16:54, size: 1,692,658)
+ Quick Compass version 3.3_beta (Updated: 2019-10-20 04:52:30, size: 1,690,138)
+ Quick Compass version 3.2_beta (Updated: 2019-10-16 16:26:24, size: 1,706,863)
+ Quick Compass version 3.1_beta (Updated: 2019-10-15 22:06:30, size: 1,705,406)
+ Quick Compass version 2.1_beta (Updated: 2019-10-06 23:03:38, size: 1,868,814)
+ Quick Compass version 2.0_beta (Updated: 2019-10-06 11:01:36, size: 1,869,368)
+ Quick Compass version 1.9_beta (Updated: 2019-10-01 16:13:28, size: 2,001,323)
+ Quick Compass version 1.7_beta (Updated: 2019-09-25 16:10:03, size: 2,048,525)
+ Quick Compass version 1.7 (Updated: 2019-09-24 16:12:53, size: 2,048,489)
+ Quick Compass version 1.5 (Updated: 2019-09-17 16:06:01, size: 1,954,893)
+ Quick Compass version 1.4 (Updated: 2019-09-16 04:45:19, size: 1,859,728)